sensor_id;sensor_type;location;lat;lon;timestamp;pressure;altitude;pressure_sealevel;temperature;humidity
59315;BME280;46521;50.160;20.802;2024-03-02T00:03:03;99175.13;;;7.30;79.09
59315;BME280;46521;50.160;20.802;2024-03-02T00:13:08;99174.45;;;7.20;78.87
59315;BME280;46521;50.160;20.802;2024-03-02T00:23:14;99174.73;;;7.09;78.65
59315;BME280;46521;50.160;20.802;2024-03-02T00:33:16;99178.17;;;7.09;78.69
59315;BME280;46521;50.160;20.802;2024-03-02T00:53:29;99167.75;;;6.91;79.29
59315;BME280;46521;50.160;20.802;2024-03-02T01:03:31;99168.38;;;6.85;79.20
59315;BME280;46521;50.160;20.802;2024-03-02T01:13:33;99157.17;;;6.83;79.08
59315;BME280;46521;50.160;20.802;2024-03-02T01:23:35;99144.72;;;6.85;79.25
59315;BME280;46521;50.160;20.802;2024-03-02T01:33:36;99150.35;;;6.98;79.48
59315;BME280;46521;50.160;20.802;2024-03-02T01:43:38;99142.80;;;7.03;79.64
59315;BME280;46521;50.160;20.802;2024-03-02T01:53:40;99130.66;;;7.02;79.22
59315;BME280;46521;50.160;20.802;2024-03-02T02:03:41;99131.66;;;7.10;79.36
59315;BME280;46521;50.160;20.802;2024-03-02T02:13:43;99127.42;;;7.17;79.85
59315;BME280;46521;50.160;20.802;2024-03-02T02:23:44;99124.64;;;7.18;79.85
59315;BME280;46521;50.160;20.802;2024-03-02T02:33:49;99109.02;;;7.17;80.46
59315;BME280;46521;50.160;20.802;2024-03-02T02:43:50;99092.91;;;7.12;80.58
59315;BME280;46521;50.160;20.802;2024-03-02T02:53:52;99088.45;;;7.12;80.34
59315;BME280;46521;50.160;20.802;2024-03-02T03:03:53;99085.33;;;7.09;79.90
59315;BME280;46521;50.160;20.802;2024-03-02T03:13:55;99098.58;;;6.99;79.83
59315;BME280;46521;50.160;20.802;2024-03-02T03:23:56;99098.40;;;6.92;80.29
59315;BME280;46521;50.160;20.802;2024-03-02T03:33:58;99095.30;;;6.97;80.20
59315;BME280;46521;50.160;20.802;2024-03-02T03:43:59;99098.73;;;6.97;80.31
59315;BME280;46521;50.160;20.802;2024-03-02T03:54:01;99092.17;;;6.93;80.82
59315;BME280;46521;50.160;20.802;2024-03-02T04:04:03;99084.28;;;6.93;80.14
59315;BME280;46521;50.160;20.802;2024-03-02T04:14:04;99087.07;;;6.92;79.88
59315;BME280;46521;50.160;20.802;2024-03-02T04:24:07;99079.97;;;6.84;80.24
59315;BME280;46521;50.160;20.802;2024-03-02T04:34:09;99081.10;;;6.81;80.63
59315;BME280;46521;50.160;20.802;2024-03-02T04:44:11;99091.43;;;6.75;80.61
59315;BME280;46521;50.160;20.802;2024-03-02T04:54:13;99093.34;;;6.64;80.56
59315;BME280;46521;50.160;20.802;2024-03-02T05:04:15;99098.40;;;6.58;80.53
59315;BME280;46521;50.160;20.802;2024-03-02T05:14:16;99094.61;;;6.52;81.64
59315;BME280;46521;50.160;20.802;2024-03-02T05:24:18;99105.42;;;6.49;80.89
59315;BME280;46521;50.160;20.802;2024-03-02T05:34:20;99115.16;;;6.57;81.21
59315;BME280;46521;50.160;20.802;2024-03-02T05:44:21;99118.95;;;6.62;81.13
59315;BME280;46521;50.160;20.802;2024-03-02T05:54:23;99111.73;;;6.64;81.29
59315;BME280;46521;50.160;20.802;2024-03-02T06:04:24;99112.58;;;6.65;80.83
59315;BME280;46521;50.160;20.802;2024-03-02T06:14:26;99126.38;;;6.67;81.02
59315;BME280;46521;50.160;20.802;2024-03-02T06:24:27;99137.54;;;6.69;81.40
59315;BME280;46521;50.160;20.802;2024-03-02T06:34:39;99143.68;;;6.78;81.64
59315;BME280;46521;50.160;20.802;2024-03-02T06:44:40;99136.45;;;6.80;82.10
59315;BME280;46521;50.160;20.802;2024-03-02T06:54:42;99134.20;;;6.85;81.79
59315;BME280;46521;50.160;20.802;2024-03-02T07:04:43;99142.12;;;6.93;81.91
59315;BME280;46521;50.160;20.802;2024-03-02T07:14:46;99149.06;;;7.02;82.04
59315;BME280;46521;50.160;20.802;2024-03-02T07:25:12;99142.70;;;7.13;82.13
59315;BME280;46521;50.160;20.802;2024-03-02T07:35:14;99163.11;;;7.19;81.91
59315;BME280;46521;50.160;20.802;2024-03-02T07:45:15;99165.59;;;7.21;81.69
59315;BME280;46521;50.160;20.802;2024-03-02T07:55:17;99166.24;;;7.23;81.97
59315;BME280;46521;50.160;20.802;2024-03-02T08:05:19;99165.08;;;7.26;81.87
59315;BME280;46521;50.160;20.802;2024-03-02T08:15:21;99181.08;;;7.32;81.95
59315;BME280;46521;50.160;20.802;2024-03-02T08:25:25;99185.73;;;7.47;82.59
59315;BME280;46521;50.160;20.802;2024-03-02T08:35:26;99184.45;;;7.59;81.82
59315;BME280;46521;50.160;20.802;2024-03-02T08:45:28;99182.00;;;7.74;82.03
59315;BME280;46521;50.160;20.802;2024-03-02T08:55:30;99183.52;;;7.85;82.30
59315;BME280;46521;50.160;20.802;2024-03-02T09:05:31;99189.63;;;7.85;82.59
59315;BME280;46521;50.160;20.802;2024-03-02T09:15:33;99190.75;;;7.83;82.32
59315;BME280;46521;50.160;20.802;2024-03-02T09:25:38;99201.61;;;7.80;82.49
59315;BME280;46521;50.160;20.802;2024-03-02T09:35:39;99202.27;;;7.82;82.56
59315;BME280;46521;50.160;20.802;2024-03-02T09:45:41;99206.23;;;7.86;82.69
59315;BME280;46521;50.160;20.802;2024-03-02T09:55:47;99209.52;;;7.96;82.02
59315;BME280;46521;50.160;20.802;2024-03-02T10:05:48;99213.01;;;8.13;82.52
59315;BME280;46521;50.160;20.802;2024-03-02T10:15:49;99203.80;;;8.34;82.51
59315;BME280;46521;50.160;20.802;2024-03-02T10:25:51;99199.05;;;8.54;82.63
59315;BME280;46521;50.160;20.802;2024-03-02T10:35:53;99202.99;;;8.82;82.09
59315;BME280;46521;50.160;20.802;2024-03-02T10:45:56;99201.59;;;9.11;81.58
59315;BME280;46521;50.160;20.802;2024-03-02T10:55:59;99197.86;;;9.37;80.92
59315;BME280;46521;50.160;20.802;2024-03-02T11:06:07;99196.09;;;9.61;80.82
59315;BME280;46521;50.160;20.802;2024-03-02T11:16:36;99192.86;;;9.82;80.39
59315;BME280;46521;50.160;20.802;2024-03-02T11:26:38;99174.42;;;9.97;80.22
59315;BME280;46521;50.160;20.802;2024-03-02T11:36:41;99179.61;;;10.13;79.64
59315;BME280;46521;50.160;20.802;2024-03-02T11:46:45;99176.31;;;10.34;80.18
59315;BME280;46521;50.160;20.802;2024-03-02T11:56:46;99167.27;;;10.52;79.76
59315;BME280;46521;50.160;20.802;2024-03-02T12:06:57;99161.98;;;10.52;79.64
59315;BME280;46521;50.160;20.802;2024-03-02T12:17:03;99165.88;;;10.41;79.28
59315;BME280;46521;50.160;20.802;2024-03-02T12:27:06;99154.36;;;10.34;79.54
59315;BME280;46521;50.160;20.802;2024-03-02T12:37:12;99148.81;;;10.43;79.73
59315;BME280;46521;50.160;20.802;2024-03-02T12:47:14;99158.85;;;10.48;78.94
59315;BME280;46521;50.160;20.802;2024-03-02T12:57:19;99152.76;;;10.62;78.89
59315;BME280;46521;50.160;20.802;2024-03-02T13:07:21;99145.30;;;10.81;78.78
59315;BME280;46521;50.160;20.802;2024-03-02T13:17:26;99140.73;;;11.05;78.78
59315;BME280;46521;50.160;20.802;2024-03-02T13:27:28;99134.28;;;11.44;78.44
59315;BME280;46521;50.160;20.802;2024-03-02T13:37:30;99126.77;;;11.84;77.32
59315;BME280;46521;50.160;20.802;2024-03-02T13:47:31;99133.97;;;11.90;76.52
59315;BME280;46521;50.160;20.802;2024-03-02T14:07:46;99138.92;;;11.93;76.23
59315;BME280;46521;50.160;20.802;2024-03-02T14:17:47;99139.64;;;11.87;75.38
59315;BME280;46521;50.160;20.802;2024-03-02T14:27:49;99148.53;;;11.79;75.20
59315;BME280;46521;50.160;20.802;2024-03-02T14:37:51;99147.57;;;11.65;75.22
59315;BME280;46521;50.160;20.802;2024-03-02T14:47:54;99142.14;;;11.52;74.64
59315;BME280;46521;50.160;20.802;2024-03-02T14:57:55;99148.99;;;11.46;74.48
59315;BME280;46521;50.160;20.802;2024-03-02T15:07:57;99135.40;;;11.34;74.71
59315;BME280;46521;50.160;20.802;2024-03-02T15:18:00;99139.27;;;11.17;74.70
59315;BME280;46521;50.160;20.802;2024-03-02T15:28:01;99141.47;;;10.98;74.24
59315;BME280;46521;50.160;20.802;2024-03-02T15:38:03;99140.48;;;10.85;75.21
59315;BME280;46521;50.160;20.802;2024-03-02T15:48:05;99135.18;;;10.70;75.00
59315;BME280;46521;50.160;20.802;2024-03-02T15:58:07;99144.73;;;10.56;74.76
59315;BME280;46521;50.160;20.802;2024-03-02T16:08:08;99141.42;;;10.39;75.04
59315;BME280;46521;50.160;20.802;2024-03-02T16:18:10;99143.34;;;10.22;74.51
59315;BME280;46521;50.160;20.802;2024-03-02T16:28:12;99151.25;;;10.07;74.93
59315;BME280;46521;50.160;20.802;2024-03-02T16:38:14;99154.48;;;9.94;75.18
59315;BME280;46521;50.160;20.802;2024-03-02T16:48:15;99165.29;;;9.84;75.25
59315;BME280;46521;50.160;20.802;2024-03-02T16:58:17;99167.49;;;9.72;75.03
59315;BME280;46521;50.160;20.802;2024-03-02T17:08:20;99181.27;;;9.60;75.73
59315;BME280;46521;50.160;20.802;2024-03-02T17:18:21;99176.39;;;9.48;75.58
59315;BME280;46521;50.160;20.802;2024-03-02T17:28:24;99172.14;;;9.39;76.00
59315;BME280;46521;50.160;20.802;2024-03-02T17:38:26;99169.52;;;9.31;76.27
59315;BME280;46521;50.160;20.802;2024-03-02T17:48:29;99183.05;;;9.28;76.59
59315;BME280;46521;50.160;20.802;2024-03-02T17:58:30;99184.06;;;9.27;76.71
59315;BME280;46521;50.160;20.802;2024-03-02T18:08:33;99182.75;;;9.23;76.47
59315;BME280;46521;50.160;20.802;2024-03-02T18:18:35;99183.59;;;9.15;76.92
59315;BME280;46521;50.160;20.802;2024-03-02T18:28:36;99177.71;;;9.05;76.91
59315;BME280;46521;50.160;20.802;2024-03-02T18:38:38;99177.23;;;8.93;76.90
59315;BME280;46521;50.160;20.802;2024-03-02T18:48:39;99185.17;;;8.84;77.31
59315;BME280;46521;50.160;20.802;2024-03-02T18:58:41;99184.53;;;8.82;77.39
59315;BME280;46521;50.160;20.802;2024-03-02T19:08:42;99180.25;;;8.65;77.41
59315;BME280;46521;50.160;20.802;2024-03-02T19:18:44;99181.09;;;8.49;77.64
59315;BME280;46521;50.160;20.802;2024-03-02T19:28:46;99185.54;;;8.40;78.24
59315;BME280;46521;50.160;20.802;2024-03-02T19:38:47;99184.55;;;8.33;77.71
59315;BME280;46521;50.160;20.802;2024-03-02T19:48:49;99194.10;;;8.34;77.91
59315;BME280;46521;50.160;20.802;2024-03-02T19:58:51;99187.50;;;8.30;78.13
59315;BME280;46521;50.160;20.802;2024-03-02T20:08:52;99187.19;;;8.25;78.17
59315;BME280;46521;50.160;20.802;2024-03-02T20:18:53;99187.51;;;8.22;78.30
59315;BME280;46521;50.160;20.802;2024-03-02T20:28:55;99197.73;;;8.17;78.93
59315;BME280;46521;50.160;20.802;2024-03-02T20:38:58;99186.51;;;8.06;78.61
59315;BME280;46521;50.160;20.802;2024-03-02T20:48:59;99176.95;;;7.97;78.50
59315;BME280;46521;50.160;20.802;2024-03-02T20:59:04;99187.81;;;7.94;79.32
59315;BME280;46521;50.160;20.802;2024-03-02T21:09:05;99182.86;;;7.91;78.94
59315;BME280;46521;50.160;20.802;2024-03-02T21:19:07;99180.55;;;7.88;79.15
59315;BME280;46521;50.160;20.802;2024-03-02T21:29:09;99180.72;;;7.86;78.82
59315;BME280;46521;50.160;20.802;2024-03-02T21:39:12;99177.59;;;7.83;78.71
59315;BME280;46521;50.160;20.802;2024-03-02T21:49:13;99173.98;;;7.84;79.94
59315;BME280;46521;50.160;20.802;2024-03-02T21:59:14;99173.63;;;7.79;79.57
59315;BME280;46521;50.160;20.802;2024-03-02T22:09:16;99170.34;;;7.76;79.63
59315;BME280;46521;50.160;20.802;2024-03-02T22:19:17;99178.56;;;7.73;79.70
59315;BME280;46521;50.160;20.802;2024-03-02T22:29:19;99174.91;;;7.66;79.39
59315;BME280;46521;50.160;20.802;2024-03-02T22:39:20;99177.22;;;7.69;80.26
59315;BME280;46521;50.160;20.802;2024-03-02T22:49:22;99176.42;;;7.77;79.50
59315;BME280;46521;50.160;20.802;2024-03-02T22:59:23;99170.67;;;7.82;79.69
59315;BME280;46521;50.160;20.802;2024-03-02T23:09:25;99185.17;;;7.86;80.00
59315;BME280;46521;50.160;20.802;2024-03-02T23:19:26;99181.56;;;7.87;79.80
59315;BME280;46521;50.160;20.802;2024-03-02T23:29:28;99184.16;;;7.79;79.31
59315;BME280;46521;50.160;20.802;2024-03-02T23:39:30;99172.00;;;7.78;79.64
59315;BME280;46521;50.160;20.802;2024-03-02T23:49:59;99159.98;;;7.83;79.91
